sensor_id;sensor_type;location;lat;lon;timestamp;pressure;altitude;pressure_sealevel;temperature;humidity
63665;BME280;49820;33.966;73.390;2024-01-27T06:54:48;79214.88;;;16.95;32.47
63665;BME280;49820;33.966;73.390;2024-01-27T06:57:22;79212.75;;;17.16;31.43
63665;BME280;49820;33.966;73.390;2024-01-27T06:59:53;79195.25;;;16.59;32.71
63665;BME280;49820;33.966;73.390;2024-01-27T07:02:26;79214.38;;;17.09;32.26
63665;BME280;49820;33.966;73.390;2024-01-27T07:04:56;79212.50;;;16.28;32.39
63665;BME280;49820;33.966;73.390;2024-01-27T07:07:27;79199.69;;;17.04;32.43
63665;BME280;49820;33.966;73.390;2024-01-27T07:09:58;79192.19;;;15.92;32.67
63665;BME280;49820;33.966;73.390;2024-01-27T07:12:28;79210.53;;;15.67;34.11
63665;BME280;49820;33.966;73.390;2024-01-27T07:14:58;79189.19;;;16.96;33.24
63665;BME280;49820;33.966;73.390;2024-01-27T07:17:29;79180.78;;;16.68;32.13
63665;BME280;49820;33.966;73.390;2024-01-27T07:19:59;79177.47;;;17.55;31.05
63665;BME280;49820;33.966;73.390;2024-01-27T07:22:29;79171.53;;;18.20;30.25
63665;BME280;49820;33.966;73.390;2024-01-27T07:24:59;79180.09;;;18.58;30.63
63665;BME280;49820;33.966;73.390;2024-01-27T07:27:28;79177.50;;;18.87;28.62
63665;BME280;49820;33.966;73.390;2024-01-27T07:29:59;79182.69;;;18.77;27.86
63665;BME280;49820;33.966;73.390;2024-01-27T07:32:29;79169.53;;;19.29;28.17
63665;BME280;49820;33.966;73.390;2024-01-27T07:34:59;79152.81;;;19.25;28.07
63665;BME280;49820;33.966;73.390;2024-01-27T07:37:32;79147.94;;;19.13;28.92
63665;BME280;49820;33.966;73.390;2024-01-27T07:40:08;79140.84;;;19.20;26.86
63665;BME280;49820;33.966;73.390;2024-01-27T07:42:38;79144.63;;;19.56;27.81
63665;BME280;49820;33.966;73.390;2024-01-27T07:45:09;79139.50;;;18.89;27.75
63665;BME280;49820;33.966;73.390;2024-01-27T07:47:39;79135.63;;;19.30;27.72
63665;BME280;49820;33.966;73.390;2024-01-27T07:50:09;79120.88;;;19.13;26.96
63665;BME280;49820;33.966;73.390;2024-01-27T07:52:39;79117.59;;;19.84;26.95
63665;BME280;49820;33.966;73.390;2024-01-27T07:55:09;79127.78;;;19.83;27.18
63665;BME280;49820;33.966;73.390;2024-01-27T07:57:39;79126.94;;;19.42;27.68
63665;BME280;49820;33.966;73.390;2024-01-27T08:00:10;79112.56;;;19.75;28.05
63665;BME280;49820;33.966;73.390;2024-01-27T08:02:40;79102.34;;;20.33;26.88
63665;BME280;49820;33.966;73.390;2024-01-27T08:05:10;79127.50;;;20.86;26.42
63665;BME280;49820;33.966;73.390;2024-01-27T08:07:40;79110.69;;;20.96;23.99
63665;BME280;49820;33.966;73.390;2024-01-27T08:10:10;79112.19;;;20.26;26.59
63665;BME280;49820;33.966;73.390;2024-01-27T08:12:42;79112.06;;;20.28;24.85
63665;BME280;49820;33.966;73.390;2024-01-27T08:15:12;79118.34;;;20.24;25.65
63665;BME280;49820;33.966;73.390;2024-01-27T08:17:43;79114.59;;;20.32;26.17
63665;BME280;49820;33.966;73.390;2024-01-27T08:20:12;79102.16;;;20.37;25.55
63665;BME280;49820;33.966;73.390;2024-01-27T08:22:43;79105.06;;;19.32;26.68
63665;BME280;49820;33.966;73.390;2024-01-27T08:25:13;79105.47;;;18.32;28.31
63665;BME280;49820;33.966;73.390;2024-01-27T08:27:44;79089.97;;;19.37;27.23
63665;BME280;49820;33.966;73.390;2024-01-27T08:30:17;79093.94;;;19.82;25.62
63665;BME280;49820;33.966;73.390;2024-01-27T08:32:47;79095.69;;;20.02;27.07
63665;BME280;49820;33.966;73.390;2024-01-27T08:35:17;79103.38;;;18.95;27.72
63665;BME280;49820;33.966;73.390;2024-01-27T08:37:46;79092.47;;;19.12;25.73
63665;BME280;49820;33.966;73.390;2024-01-27T08:40:16;79100.69;;;18.95;29.11
63665;BME280;49820;33.966;73.390;2024-01-27T08:42:46;79098.34;;;18.87;28.69
63665;BME280;49820;33.966;73.390;2024-01-27T08:45:16;79082.19;;;19.29;26.53
63665;BME280;49820;33.966;73.390;2024-01-27T08:47:45;79083.72;;;18.65;28.37
63665;BME280;49820;33.966;73.390;2024-01-27T08:50:15;79062.31;;;17.31;29.98
63665;BME280;49820;33.966;73.390;2024-01-27T08:52:45;79069.22;;;18.24;28.85
63665;BME280;49820;33.966;73.390;2024-01-27T08:55:15;79075.97;;;18.25;28.67
63665;BME280;49820;33.966;73.390;2024-01-27T08:57:48;79078.03;;;18.56;28.16
63665;BME280;49820;33.966;73.390;2024-01-27T09:00:18;79078.09;;;18.23;28.49
63665;BME280;49820;33.966;73.390;2024-01-27T09:02:48;79082.94;;;16.87;31.91
63665;BME280;49820;33.966;73.390;2024-01-27T09:05:18;79065.38;;;16.88;30.26
63665;BME280;49820;33.966;73.390;2024-01-27T09:07:48;79058.19;;;16.09;30.32
63665;BME280;49820;33.966;73.390;2024-01-27T09:10:17;79074.81;;;15.97;31.53
63665;BME280;49820;33.966;73.390;2024-01-27T09:12:48;79058.19;;;15.90;32.78
63665;BME280;49820;33.966;73.390;2024-01-27T09:15:18;79060.00;;;15.77;31.94
63665;BME280;49820;33.966;73.390;2024-01-27T09:17:47;79073.94;;;14.40;33.79
63665;BME280;49820;33.966;73.390;2024-01-27T09:20:18;79060.38;;;14.22;34.57
63665;BME280;49820;33.966;73.390;2024-01-27T09:22:48;79059.50;;;13.84;35.13
63665;BME280;49820;33.966;73.390;2024-01-27T09:25:20;79045.88;;;13.90;35.29
63665;BME280;49820;33.966;73.390;2024-01-27T09:27:49;79052.16;;;13.82;34.86
63665;BME280;49820;33.966;73.390;2024-01-27T09:30:20;79057.41;;;13.86;35.04
63665;BME280;49820;33.966;73.390;2024-01-27T09:32:49;79054.47;;;13.71;36.75
63665;BME280;49820;33.966;73.390;2024-01-27T09:35:19;79056.97;;;14.67;35.51
63665;BME280;49820;33.966;73.390;2024-01-27T09:37:49;79058.41;;;14.20;34.59
63665;BME280;49820;33.966;73.390;2024-01-27T09:40:19;79044.66;;;13.39;35.83
63665;BME280;49820;33.966;73.390;2024-01-27T09:42:58;79064.03;;;13.42;36.20
63665;BME280;49820;33.966;73.390;2024-01-27T09:45:29;79067.88;;;13.49;36.80
63665;BME280;49820;33.966;73.390;2024-01-27T09:48:00;79068.72;;;12.91;37.62
63665;BME280;49820;33.966;73.390;2024-01-27T09:50:30;79031.41;;;12.32;39.47
63665;BME280;49820;33.966;73.390;2024-01-27T09:53:00;79060.59;;;12.42;39.72
63665;BME280;49820;33.966;73.390;2024-01-27T09:55:31;79064.91;;;12.31;38.81
63665;BME280;49820;33.966;73.390;2024-01-27T09:58:01;79060.19;;;12.31;39.22
63665;BME280;49820;33.966;73.390;2024-01-27T10:00:30;79063.88;;;12.17;39.02
63665;BME280;49820;33.966;73.390;2024-01-27T10:03:01;79065.03;;;11.67;39.59
63665;BME280;49820;33.966;73.390;2024-01-27T10:05:33;79046.47;;;11.59;40.60
63665;BME280;49820;33.966;73.390;2024-01-27T10:08:06;79045.75;;;11.29;40.54
63665;BME280;49820;33.966;73.390;2024-01-27T10:10:37;79043.50;;;10.78;42.37
63665;BME280;49820;33.966;73.390;2024-01-27T10:13:10;79062.31;;;11.05;41.61
63665;BME280;49820;33.966;73.390;2024-01-27T10:15:43;79059.25;;;10.57;42.21
63665;BME280;49820;33.966;73.390;2024-01-27T10:18:13;79057.91;;;10.56;42.94
63665;BME280;49820;33.966;73.390;2024-01-27T10:20:44;79054.09;;;10.82;41.89
63665;BME280;49820;33.966;73.390;2024-01-27T10:23:16;79031.97;;;10.14;42.41
63665;BME280;49820;33.966;73.390;2024-01-27T10:25:46;79046.03;;;10.12;43.19
63665;BME280;49820;33.966;73.390;2024-01-27T10:28:16;79042.50;;;10.24;43.36
63665;BME280;49820;33.966;73.390;2024-01-27T10:30:46;79044.19;;;10.03;44.33
63665;BME280;49820;33.966;73.390;2024-01-27T10:33:17;79054.91;;;9.99;44.85
63665;BME280;49820;33.966;73.390;2024-01-27T10:35:57;79045.56;;;10.00;44.44
63665;BME280;49820;33.966;73.390;2024-01-27T10:38:38;79048.81;;;9.65;44.57
63665;BME280;49820;33.966;73.390;2024-01-27T10:41:09;79055.63;;;9.56;45.75
63665;BME280;49820;33.966;73.390;2024-01-27T10:43:42;79056.44;;;9.48;46.07
63665;BME280;49820;33.966;73.390;2024-01-27T10:46:13;79051.34;;;9.32;45.38
63665;BME280;49820;33.966;73.390;2024-01-27T10:48:44;79035.94;;;8.92;45.94
63665;BME280;49820;33.966;73.390;2024-01-27T10:51:22;79027.19;;;8.97;47.21
63665;BME280;49820;33.966;73.390;2024-01-27T10:54:02;79045.06;;;9.05;47.40
63665;BME280;49820;33.966;73.390;2024-01-27T10:56:33;79042.38;;;9.07;47.03
63665;BME280;49820;33.966;73.390;2024-01-27T10:59:04;79050.41;;;9.03;47.42
63665;BME280;49820;33.966;73.390;2024-01-27T11:01:38;79047.97;;;8.87;46.89
63665;BME280;49820;33.966;73.390;2024-01-27T11:04:11;79042.13;;;8.76;47.46
63665;BME280;49820;33.966;73.390;2024-01-27T11:06:43;79038.97;;;8.65;47.73
63665;BME280;49820;33.966;73.390;2024-01-27T11:09:14;79043.84;;;8.49;47.75
63665;BME280;49820;33.966;73.390;2024-01-27T11:11:45;79049.28;;;8.38;48.35
63665;BME280;49820;33.966;73.390;2024-01-27T11:14:16;79050.78;;;8.19;48.16
63665;BME280;49820;33.966;73.390;2024-01-27T11:16:45;79029.06;;;8.00;49.23
63665;BME280;49820;33.966;73.390;2024-01-27T11:19:17;79050.88;;;8.11;48.83
63665;BME280;49820;33.966;73.390;2024-01-27T11:21:48;79035.72;;;8.01;49.04
63665;BME280;49820;33.966;73.390;2024-01-27T11:24:18;79043.69;;;8.01;49.26
63665;BME280;49820;33.966;73.390;2024-01-27T11:26:48;79033.16;;;7.93;49.21
63665;BME280;49820;33.966;73.390;2024-01-27T11:29:29;79025.34;;;7.75;49.41
63665;BME280;49820;33.966;73.390;2024-01-27T11:32:02;79044.47;;;7.92;49.32
63665;BME280;49820;33.966;73.390;2024-01-27T11:34:45;79045.16;;;7.88;49.34
63665;BME280;49820;33.966;73.390;2024-01-27T11:37:17;78999.63;;;7.55;49.00
63665;BME280;49820;33.966;73.390;2024-01-27T11:40:04;79020.94;;;7.53;49.37
63665;BME280;49820;33.966;73.390;2024-01-27T11:42:35;79021.03;;;7.45;51.28
63665;BME280;49820;33.966;73.390;2024-01-27T11:45:05;79023.09;;;7.35;53.15
63665;BME280;49820;33.966;73.390;2024-01-27T11:47:35;79025.78;;;7.31;52.75
63665;BME280;49820;33.966;73.390;2024-01-27T11:50:05;79035.78;;;7.28;53.51
63665;BME280;49820;33.966;73.390;2024-01-27T11:52:37;79026.00;;;7.06;53.75
63665;BME280;49820;33.966;73.390;2024-01-27T11:55:07;79033.94;;;7.12;54.49
63665;BME280;49820;33.966;73.390;2024-01-27T11:57:37;79037.28;;;7.07;54.57
63665;BME280;49820;33.966;73.390;2024-01-27T12:00:07;78998.38;;;6.75;54.21
63665;BME280;49820;33.966;73.390;2024-01-27T12:02:38;79022.81;;;6.92;54.70
63665;BME280;49820;33.966;73.390;2024-01-27T12:05:09;79003.66;;;6.79;54.18
63665;BME280;49820;33.966;73.390;2024-01-27T12:07:39;79009.59;;;6.83;54.71
63665;BME280;49820;33.966;73.390;2024-01-27T12:10:09;79011.72;;;6.67;54.86
63665;BME280;49820;33.966;73.390;2024-01-27T12:12:39;79011.75;;;6.61;54.84
63665;BME280;49820;33.966;73.390;2024-01-27T12:15:09;79001.91;;;6.47;54.73
63665;BME280;49820;33.966;73.390;2024-01-27T12:17:39;79012.53;;;6.45;53.47
63665;BME280;49820;33.966;73.390;2024-01-27T12:20:14;79005.94;;;6.38;53.37
63665;BME280;49820;33.966;73.390;2024-01-27T12:22:48;79028.44;;;6.47;52.90
63665;BME280;49820;33.966;73.390;2024-01-27T12:25:27;79019.94;;;6.30;52.98
63665;BME280;49820;33.966;73.390;2024-01-27T12:28:08;79010.75;;;6.15;54.30
63665;BME280;49820;33.966;73.390;2024-01-27T12:30:46;79037.28;;;6.15;54.96
63665;BME280;49820;33.966;73.390;2024-01-27T12:33:23;79026.63;;;6.21;54.96
63665;BME280;49820;33.966;73.390;2024-01-27T12:36:08;79022.09;;;5.95;55.72
63665;BME280;49820;33.966;73.390;2024-01-27T12:38:52;79037.31;;;6.03;55.30
63665;BME280;49820;33.966;73.390;2024-01-27T12:41:29;79041.94;;;6.06;55.50
63665;BME280;49820;33.966;73.390;2024-01-27T12:44:03;79049.25;;;6.04;55.34
63665;BME280;49820;33.966;73.390;2024-01-27T12:46:34;79050.56;;;6.03;54.95
63665;BME280;49820;33.966;73.390;2024-01-27T12:49:07;79044.66;;;5.98;54.75
63665;BME280;49820;33.966;73.390;2024-01-27T12:51:42;79047.31;;;5.92;54.94
63665;BME280;49820;33.966;73.390;2024-01-27T12:54:17;79061.91;;;5.91;55.16
63665;BME280;49820;33.966;73.390;2024-01-27T12:56:59;79044.66;;;5.86;54.66
63665;BME280;49820;33.966;73.390;2024-01-27T12:59:35;79055.28;;;5.88;55.36
63665;BME280;49820;33.966;73.390;2024-01-27T13:02:10;79053.31;;;5.79;55.42
63665;BME280;49820;33.966;73.390;2024-01-27T13:04:46;79034.16;;;5.62;56.08
63665;BME280;49820;33.966;73.390;2024-01-27T13:07:18;79063.28;;;5.74;55.77
63665;BME280;49820;33.966;73.390;2024-01-27T13:09:48;79059.31;;;5.73;55.86
63665;BME280;49820;33.966;73.390;2024-01-27T13:12:18;79057.97;;;5.70;55.90
63665;BME280;49820;33.966;73.390;2024-01-27T13:14:47;79053.38;;;5.66;55.62
63665;BME280;49820;33.966;73.390;2024-01-27T13:17:18;79048.06;;;5.62;55.58
63665;BME280;49820;33.966;73.390;2024-01-27T13:19:48;79061.28;;;5.74;55.32
63665;BME280;49820;33.966;73.390;2024-01-27T13:22:20;79071.22;;;5.76;55.64
63665;BME280;49820;33.966;73.390;2024-01-27T13:24:53;79065.97;;;5.58;55.54
63665;BME280;49820;33.966;73.390;2024-01-27T13:27:27;79053.41;;;5.44;55.19
63665;BME280;49820;33.966;73.390;2024-01-27T13:30:00;79068.69;;;5.42;55.74
63665;BME280;49820;33.966;73.390;2024-01-27T13:32:36;79073.97;;;5.44;55.71
63665;BME280;49820;33.966;73.390;2024-01-27T13:35:12;79082.56;;;5.48;56.52
63665;BME280;49820;33.966;73.390;2024-01-27T13:37:47;79095.81;;;5.50;55.94
63665;BME280;49820;33.966;73.390;2024-01-27T13:43:52;79068.06;;;5.23;55.58
63665;BME280;49820;33.966;73.390;2024-01-27T13:49:44;79099.16;;;5.34;55.91
63665;BME280;49820;33.966;73.390;2024-01-27T13:52:24;79099.16;;;5.34;54.97
63665;BME280;49820;33.966;73.390;2024-01-27T13:54:54;79096.53;;;5.24;55.35
63665;BME280;49820;33.966;73.390;2024-01-27T13:57:33;79106.44;;;5.30;55.97
63665;BME280;49820;33.966;73.390;2024-01-27T14:00:08;79090.56;;;5.12;57.10
63665;BME280;49820;33.966;73.390;2024-01-27T14:02:39;79101.16;;;5.20;56.66
63665;BME280;49820;33.966;73.390;2024-01-27T14:05:10;79112.41;;;5.20;57.48
63665;BME280;49820;33.966;73.390;2024-01-27T14:07:40;79102.50;;;5.19;56.69
63665;BME280;49820;33.966;73.390;2024-01-27T14:10:12;79090.56;;;5.20;56.38
63665;BME280;49820;33.966;73.390;2024-01-27T14:12:45;79095.22;;;5.17;56.73
63665;BME280;49820;33.966;73.390;2024-01-27T14:15:15;79091.25;;;5.18;56.11
63665;BME280;49820;33.966;73.390;2024-01-27T14:17:47;79095.19;;;5.21;54.35
63665;BME280;49820;33.966;73.390;2024-01-27T14:20:21;79080.66;;;5.12;54.14
63665;BME280;49820;33.966;73.390;2024-01-27T14:22:51;79082.66;;;5.08;54.42
63665;BME280;49820;33.966;73.390;2024-01-27T14:25:24;79105.16;;;5.15;54.40
63665;BME280;49820;33.966;73.390;2024-01-27T14:27:59;79107.16;;;5.10;54.26
63665;BME280;49820;33.966;73.390;2024-01-27T14:30:30;79099.84;;;5.07;53.67
63665;BME280;49820;33.966;73.390;2024-01-27T14:33:03;79074.06;;;4.97;53.42
63665;BME280;49820;33.966;73.390;2024-01-27T14:35:36;79099.19;;;5.18;53.18
63665;BME280;49820;33.966;73.390;2024-01-27T14:38:09;79105.13;;;5.23;53.03
63665;BME280;49820;33.966;73.390;2024-01-27T14:40:40;79105.16;;;5.15;53.13
63665;BME280;49820;33.966;73.390;2024-01-27T14:43:10;79103.16;;;5.15;53.13
63665;BME280;49820;33.966;73.390;2024-01-27T14:45:42;79113.09;;;5.15;52.92
63665;BME280;49820;33.966;73.390;2024-01-27T14:48:12;79083.31;;;4.92;52.70
63665;BME280;49820;33.966;73.390;2024-01-27T14:50:42;79098.53;;;5.16;52.61
63665;BME280;49820;33.966;73.390;2024-01-27T14:53:12;79112.44;;;5.16;51.02
63665;BME280;49820;33.966;73.390;2024-01-27T14:55:43;79103.16;;;5.15;50.19
63665;BME280;49820;33.966;73.390;2024-01-27T14:58:15;79118.38;;;5.33;49.86
63665;BME280;49820;33.966;73.390;2024-01-27T15:00:45;79115.72;;;5.35;49.92
63665;BME280;49820;33.966;73.390;2024-01-27T15:03:23;79111.06;;;5.35;49.14
63665;BME280;49820;33.966;73.390;2024-01-27T15:05:53;79121.66;;;5.44;49.12
63665;BME280;49820;33.966;73.390;2024-01-27T15:08:24;79099.16;;;5.32;49.49
63665;BME280;49820;33.966;73.390;2024-01-27T15:10:55;79096.50;;;5.28;49.34
63665;BME280;49820;33.966;73.390;2024-01-27T15:13:26;79109.06;;;5.44;48.99
63665;BME280;49820;33.966;73.390;2024-01-27T15:15:59;79100.44;;;5.48;49.35
63665;BME280;49820;33.966;73.390;2024-01-27T15:18:36;79124.25;;;5.68;51.18
63665;BME280;49820;33.966;73.390;2024-01-27T15:21:12;79106.38;;;5.60;50.82
63665;BME280;49820;33.966;73.390;2024-01-27T15:23:48;79104.38;;;5.61;50.99
63665;BME280;49820;33.966;73.390;2024-01-27T15:26:23;79124.25;;;5.68;52.11
63665;BME280;49820;33.966;73.390;2024-01-27T15:28:58;79112.34;;;5.65;51.44
63665;BME280;49820;33.966;73.390;2024-01-27T15:31:33;79111.00;;;5.74;51.39
63665;BME280;49820;33.966;73.390;2024-01-27T15:34:04;79116.28;;;5.76;51.35
63665;BME280;49820;33.966;73.390;2024-01-27T15:36:38;79127.56;;;5.74;51.93
63665;BME280;49820;33.966;73.390;2024-01-27T15:39:09;79128.25;;;5.61;53.40
63665;BME280;49820;33.966;73.390;2024-01-27T15:41:41;79127.59;;;5.52;53.36
63665;BME280;49820;33.966;73.390;2024-01-27T15:44:11;79124.31;;;5.37;52.97
63665;BME280;49820;33.966;73.390;2024-01-27T15:46:42;79125.63;;;5.49;52.23
